Terminal Aerodrome Forecast
Issued by NWS Pueblo, CO

Home | Current Version | Previous Version | Text Only | Print | Product List | Glossary On
Versions: 1 2 3 4 5 6 7 8 9 10 11 12 13 14 15 16 17 18 19 20 21 22 23 24 25 26 27 28 29 30 31 32 33 34 35 36 37 38 39 40 41 42 43
000
FTUS45 KPUB 251121
TAFCOS
TAF
KCOS 251121Z 2512/2612 02006KT P6SM FEW060 SCT070 BKN110
     FM251900 20010KT P6SM VCTS SCT040 BKN080CB
     FM260200 35010KT P6SM FEW020 SCT050 BKN130=

USA.gov is the U.S. government's official web portal to all federal, state and local government web resources and services.